Power, Montana
Current Conditions -  °F | °C
As of 1:53 AM on Monday 24 Nov 2014 (Local Time) from KGTF Reporting Station
Overcast Overcast  
Wind Chill: 28°   Ceiling: 7000
Heat Index: 36°   Visibility: 10mi
Dew Point: 22°   Wind: 13mph
Humidity: 57%   Direction: 270°W
Pressure: 29.88"   Gusts: NA
Location:  47.71°N, 111.69°W
Report Text: KGTF 240853Z 27011KT 10SM OVC070 02/M06 A2988 RMK AO2 SLP142 T00221056 51029
Loading
Personal Weather Stations






























Interactive Weather Map New forecast layout! Learn more

10-Day Weather Forecast

Advertisements
Track Severe Weather on mobile